sensor_id;sensor_type;location;lat;lon;timestamp;pressure;altitude;pressure_sealevel;temperature;humidity
65329;BME280;51941;52.210;5.158;2022-08-19T00:00:49;101307.63;;;17.37;83.38
65329;BME280;51941;52.210;5.158;2022-08-19T00:03:16;101309.75;;;17.35;83.61
65329;BME280;51941;52.210;5.158;2022-08-19T00:05:43;101132.91;;;16.23;83.40
65329;BME280;51941;52.210;5.158;2022-08-19T00:08:11;101313.78;;;17.37;83.92
65329;BME280;51941;52.210;5.158;2022-08-19T00:10:38;101313.25;;;17.35;83.99
65329;BME280;51941;52.210;5.158;2022-08-19T00:13:05;101315.09;;;17.35;84.04
65329;BME280;51941;52.210;5.158;2022-08-19T00:15:32;101272.19;;;16.99;83.84
65329;BME280;51941;52.210;5.158;2022-08-19T00:17:58;101255.84;;;16.91;83.91
65329;BME280;51941;52.210;5.158;2022-08-19T00:20:26;101282.59;;;16.96;83.85
65329;BME280;51941;52.210;5.158;2022-08-19T00:22:52;101263.31;;;16.84;83.79
65329;BME280;51941;52.210;5.158;2022-08-19T00:25:21;101144.84;;;16.11;83.70
65329;BME280;51941;52.210;5.158;2022-08-19T00:27:48;101326.03;;;17.23;84.04
65329;BME280;51941;52.210;5.158;2022-08-19T00:30:15;101320.41;;;17.20;84.14
65329;BME280;51941;52.210;5.158;2022-08-19T00:32:42;101205.59;;;16.36;84.17
65329;BME280;51941;52.210;5.158;2022-08-19T00:35:09;101331.34;;;17.13;84.27
65329;BME280;51941;52.210;5.158;2022-08-19T00:37:36;101134.13;;;16.01;83.74
65329;BME280;51941;52.210;5.158;2022-08-19T00:40:06;101303.78;;;17.08;84.22
65329;BME280;51941;52.210;5.158;2022-08-19T00:42:34;101313.38;;;17.03;84.32
65329;BME280;51941;52.210;5.158;2022-08-19T00:45:02;101313.66;;;17.02;84.42
65329;BME280;51941;52.210;5.158;2022-08-19T00:47:35;100970.63;;;14.84;84.56
65329;BME280;51941;52.210;5.158;2022-08-19T00:50:02;101168.09;;;16.15;84.60
65329;BME280;51941;52.210;5.158;2022-08-19T00:52:32;101301.06;;;16.97;84.74
65329;BME280;51941;52.210;5.158;2022-08-19T00:55:01;101318.97;;;16.97;84.97
65329;BME280;51941;52.210;5.158;2022-08-19T00:57:31;101290.81;;;16.79;84.95
65329;BME280;51941;52.210;5.158;2022-08-19T01:00:05;101301.31;;;16.96;84.79
65329;BME280;51941;52.210;5.158;2022-08-19T01:02:34;101273.94;;;16.68;84.71
65329;BME280;51941;52.210;5.158;2022-08-19T01:05:03;101309.09;;;16.92;84.96
65329;BME280;51941;52.210;5.158;2022-08-19T01:07:32;101310.16;;;16.91;85.37
65329;BME280;51941;52.210;5.158;2022-08-19T01:10:00;101311.75;;;16.92;85.11
65329;BME280;51941;52.210;5.158;2022-08-19T01:12:27;101312.56;;;16.93;85.04
65329;BME280;51941;52.210;5.158;2022-08-19T01:14:55;101286.78;;;16.77;85.11
65329;BME280;51941;52.210;5.158;2022-08-19T01:17:23;101317.38;;;16.91;85.56
65329;BME280;51941;52.210;5.158;2022-08-19T01:19:50;101311.72;;;16.87;85.76
65329;BME280;51941;52.210;5.158;2022-08-19T01:22:25;101019.53;;;15.00;85.70
65329;BME280;51941;52.210;5.158;2022-08-19T01:24:53;101317.56;;;16.79;86.06
65329;BME280;51941;52.210;5.158;2022-08-19T01:27:20;101315.94;;;16.78;85.87
65329;BME280;51941;52.210;5.158;2022-08-19T01:29:47;101314.34;;;16.77;85.75
65329;BME280;51941;52.210;5.158;2022-08-19T01:32:16;101317.81;;;16.78;85.74
65329;BME280;51941;52.210;5.158;2022-08-19T01:34:44;101126.91;;;15.59;85.51
65329;BME280;51941;52.210;5.158;2022-08-19T01:37:13;101315.69;;;16.80;85.61
65329;BME280;51941;52.210;5.158;2022-08-19T01:39:42;101231.44;;;16.25;85.50
65329;BME280;51941;52.210;5.158;2022-08-19T01:42:09;101313.81;;;16.80;85.65
65329;BME280;51941;52.210;5.158;2022-08-19T01:44:38;101317.81;;;16.78;85.95
65329;BME280;51941;52.210;5.158;2022-08-19T01:47:06;101323.44;;;16.76;85.85
65329;BME280;51941;52.210;5.158;2022-08-19T01:49:34;101319.97;;;16.76;85.97
65329;BME280;51941;52.210;5.158;2022-08-19T01:52:04;101323.69;;;16.75;85.96
65329;BME280;51941;52.210;5.158;2022-08-19T01:54:32;101326.34;;;16.70;86.08
65329;BME280;51941;52.210;5.158;2022-08-19T01:57:05;101141.22;;;15.48;85.97
65329;BME280;51941;52.210;5.158;2022-08-19T01:59:33;101327.69;;;16.67;85.86
65329;BME280;51941;52.210;5.158;2022-08-19T02:02:02;101312.84;;;16.54;85.98
65329;BME280;51941;52.210;5.158;2022-08-19T02:04:32;101264.53;;;16.19;85.79
65329;BME280;51941;52.210;5.158;2022-08-19T02:06:59;101329.47;;;16.61;85.87
65329;BME280;51941;52.210;5.158;2022-08-19T02:09:26;101328.13;;;16.59;85.81
65329;BME280;51941;52.210;5.158;2022-08-19T02:11:53;101034.34;;;14.59;85.51
65329;BME280;51941;52.210;5.158;2022-08-19T02:14:21;101085.06;;;14.96;86.02
65329;BME280;51941;52.210;5.158;2022-08-19T02:16:47;101331.81;;;16.53;86.19
65329;BME280;51941;52.210;5.158;2022-08-19T02:19:14;101327.53;;;16.52;86.07
65329;BME280;51941;52.210;5.158;2022-08-19T02:21:41;101272.97;;;16.01;86.24
65329;BME280;51941;52.210;5.158;2022-08-19T02:24:09;101344.09;;;16.49;86.03
65329;BME280;51941;52.210;5.158;2022-08-19T02:26:36;101338.19;;;16.47;86.15
65329;BME280;51941;52.210;5.158;2022-08-19T02:29:03;101317.56;;;16.37;86.07
65329;BME280;51941;52.210;5.158;2022-08-19T02:31:31;101104.22;;;14.93;86.00
65329;BME280;51941;52.210;5.158;2022-08-19T02:33:58;101145.31;;;15.29;86.33
65329;BME280;51941;52.210;5.158;2022-08-19T02:36:25;101337.09;;;16.43;86.20
65329;BME280;51941;52.210;5.158;2022-08-19T02:38:53;101336.28;;;16.42;86.45
65329;BME280;51941;52.210;5.158;2022-08-19T02:41:21;101337.09;;;16.43;86.02
65329;BME280;51941;52.210;5.158;2022-08-19T02:43:48;101118.19;;;15.05;85.98
65329;BME280;51941;52.210;5.158;2022-08-19T02:46:17;101320.00;;;16.44;85.88
65329;BME280;51941;52.210;5.158;2022-08-19T02:48:48;101327.22;;;16.43;85.98
65329;BME280;51941;52.210;5.158;2022-08-19T02:51:19;101320.25;;;16.42;86.04
65329;BME280;51941;52.210;5.158;2022-08-19T02:53:47;101328.28;;;16.42;85.96
65329;BME280;51941;52.210;5.158;2022-08-19T02:56:13;101188.53;;;15.58;85.79
65329;BME280;51941;52.210;5.158;2022-08-19T02:58:41;101316.00;;;16.41;86.04
65329;BME280;51941;52.210;5.158;2022-08-19T03:01:09;101302.59;;;16.36;85.86
65329;BME280;51941;52.210;5.158;2022-08-19T03:03:37;101295.06;;;16.33;85.82
65329;BME280;51941;52.210;5.158;2022-08-19T03:06:07;101312.53;;;16.41;86.18
65329;BME280;51941;52.210;5.158;2022-08-19T03:08:36;101254.16;;;15.85;86.01
65329;BME280;51941;52.210;5.158;2022-08-19T03:11:03;101307.69;;;16.38;86.20
65329;BME280;51941;52.210;5.158;2022-08-19T03:13:30;101244.56;;;15.89;86.35
65329;BME280;51941;52.210;5.158;2022-08-19T03:15:57;101314.88;;;16.32;86.83
65329;BME280;51941;52.210;5.158;2022-08-19T03:18:24;101169.00;;;15.20;86.51
65329;BME280;51941;52.210;5.158;2022-08-19T03:20:52;101317.75;;;16.25;86.63
65329;BME280;51941;52.210;5.158;2022-08-19T03:23:22;101227.25;;;15.60;86.34
65329;BME280;51941;52.210;5.158;2022-08-19T03:25:50;101311.56;;;16.20;86.68
65329;BME280;51941;52.210;5.158;2022-08-19T03:28:19;101305.91;;;16.16;87.09
65329;BME280;51941;52.210;5.158;2022-08-19T03:30:56;101301.91;;;16.14;86.69
65329;BME280;51941;52.210;5.158;2022-08-19T03:33:24;101252.25;;;15.81;86.67
65329;BME280;51941;52.210;5.158;2022-08-19T03:36:00;101089.69;;;14.78;86.53
65329;BME280;51941;52.210;5.158;2022-08-19T03:38:28;101209.50;;;15.44;86.55
65329;BME280;51941;52.210;5.158;2022-08-19T03:40:55;101302.91;;;16.08;86.78
65329;BME280;51941;52.210;5.158;2022-08-19T03:43:22;101106.03;;;14.87;86.65
65329;BME280;51941;52.210;5.158;2022-08-19T03:45:59;101295.19;;;16.06;86.90
65329;BME280;51941;52.210;5.158;2022-08-19T03:48:26;101182.47;;;15.35;86.82
65329;BME280;51941;52.210;5.158;2022-08-19T03:50:53;101303.13;;;16.01;87.00
65329;BME280;51941;52.210;5.158;2022-08-19T03:53:20;101304.19;;;16.00;86.81
65329;BME280;51941;52.210;5.158;2022-08-19T03:55:48;101296.88;;;15.85;86.99
65329;BME280;51941;52.210;5.158;2022-08-19T03:58:15;101209.44;;;15.39;87.00
65329;BME280;51941;52.210;5.158;2022-08-19T04:00:42;101290.97;;;15.83;87.12
65329;BME280;51941;52.210;5.158;2022-08-19T04:03:09;101253.72;;;15.62;86.86
65329;BME280;51941;52.210;5.158;2022-08-19T04:05:36;101312.47;;;15.99;87.05
65329;BME280;51941;52.210;5.158;2022-08-19T04:08:03;101312.47;;;15.99;87.09
65329;BME280;51941;52.210;5.158;2022-08-19T04:10:31;101288.28;;;15.78;87.18
65329;BME280;51941;52.210;5.158;2022-08-19T04:13:03;101143.13;;;14.94;86.80
65329;BME280;51941;52.210;5.158;2022-08-19T04:15:32;101036.63;;;14.23;87.07
65329;BME280;51941;52.210;5.158;2022-08-19T04:18:05;101234.59;;;15.48;87.27
65329;BME280;51941;52.210;5.158;2022-08-19T04:20:33;101241.56;;;15.54;87.43
65329;BME280;51941;52.210;5.158;2022-08-19T04:23:04;101265.56;;;15.76;87.27
65329;BME280;51941;52.210;5.158;2022-08-19T04:25:35;101298.03;;;15.95;87.41
65329;BME280;51941;52.210;5.158;2022-08-19T04:28:04;101212.34;;;15.37;87.36
65329;BME280;51941;52.210;5.158;2022-08-19T04:30:37;101289.44;;;15.92;87.48
65329;BME280;51941;52.210;5.158;2022-08-19T04:33:04;101289.44;;;15.92;87.34
65329;BME280;51941;52.210;5.158;2022-08-19T04:35:35;101285.72;;;15.93;87.51
65329;BME280;51941;52.210;5.158;2022-08-19T04:38:02;101229.00;;;15.49;87.45
65329;BME280;51941;52.210;5.158;2022-08-19T04:40:29;101216.88;;;15.37;87.63
65329;BME280;51941;52.210;5.158;2022-08-19T04:43:15;101132.13;;;14.85;87.97
65329;BME280;51941;52.210;5.158;2022-08-19T04:45:42;101299.06;;;15.93;87.92
65329;BME280;51941;52.210;5.158;2022-08-19T04:48:09;101304.41;;;15.93;88.18
65329;BME280;51941;52.210;5.158;2022-08-19T04:50:38;101160.81;;;15.00;88.40
65329;BME280;51941;52.210;5.158;2022-08-19T04:53:05;101304.16;;;15.95;88.21
65329;BME280;51941;52.210;5.158;2022-08-19T04:55:32;101303.06;;;15.91;87.93
65329;BME280;51941;52.210;5.158;2022-08-19T04:58:01;101313.81;;;16.01;88.01
65329;BME280;51941;52.210;5.158;2022-08-19T05:00:29;101314.13;;;16.05;88.08
65329;BME280;51941;52.210;5.158;2022-08-19T05:02:56;101131.63;;;14.88;87.76
65329;BME280;51941;52.210;5.158;2022-08-19T05:05:23;101327.00;;;16.13;88.28
65329;BME280;51941;52.210;5.158;2022-08-19T05:07:49;101330.50;;;16.18;88.08
65329;BME280;51941;52.210;5.158;2022-08-19T05:10:16;101303.72;;;16.08;88.17
65329;BME280;51941;52.210;5.158;2022-08-19T05:12:43;101340.50;;;16.33;88.14
65329;BME280;51941;52.210;5.158;2022-08-19T05:15:10;101326.06;;;16.34;87.90
65329;BME280;51941;52.210;5.158;2022-08-19T05:17:38;101344.91;;;16.49;88.20
65329;BME280;51941;52.210;5.158;2022-08-19T05:20:26;101335.06;;;16.60;87.98
65329;BME280;51941;52.210;5.158;2022-08-19T05:23:10;101334.91;;;16.72;88.02
65329;BME280;51941;52.210;5.158;2022-08-19T05:25:39;101327.50;;;16.84;87.99
65329;BME280;51941;52.210;5.158;2022-08-19T05:28:06;101324.59;;;16.95;87.72
65329;BME280;51941;52.210;5.158;2022-08-19T05:30:33;101292.19;;;16.87;87.50
65329;BME280;51941;52.210;5.158;2022-08-19T05:33:01;101316.13;;;17.24;87.65
65329;BME280;51941;52.210;5.158;2022-08-19T05:35:28;101322.34;;;17.34;88.01
65329;BME280;51941;52.210;5.158;2022-08-19T05:37:56;101139.06;;;16.34;87.70
65329;BME280;51941;52.210;5.158;2022-08-19T05:40:22;101276.56;;;17.31;87.51
65329;BME280;51941;52.210;5.158;2022-08-19T05:42:49;101149.41;;;16.78;87.64
65329;BME280;51941;52.210;5.158;2022-08-19T05:45:17;101325.69;;;18.07;87.05
65329;BME280;51941;52.210;5.158;2022-08-19T05:47:44;101050.16;;;16.49;86.74
65329;BME280;51941;52.210;5.158;2022-08-19T05:50:12;101329.66;;;18.30;87.07
65329;BME280;51941;52.210;5.158;2022-08-19T05:52:39;101321.63;;;18.40;86.64
65329;BME280;51941;52.210;5.158;2022-08-19T05:55:07;101327.53;;;18.52;86.49
65329;BME280;51941;52.210;5.158;2022-08-19T05:57:33;101337.69;;;18.61;86.45
65329;BME280;51941;52.210;5.158;2022-08-19T06:00:00;101129.94;;;17.63;85.98
65329;BME280;51941;52.210;5.158;2022-08-19T06:02:37;101303.75;;;19.00;86.04
65329;BME280;51941;52.210;5.158;2022-08-19T06:05:05;101315.66;;;19.33;85.51
65329;BME280;51941;52.210;5.158;2022-08-19T06:07:35;101321.81;;;19.44;84.74
65329;BME280;51941;52.210;5.158;2022-08-19T06:10:03;101329.25;;;19.57;84.55
65329;BME280;51941;52.210;5.158;2022-08-19T06:12:30;101330.81;;;19.63;84.04
65329;BME280;51941;52.210;5.158;2022-08-19T06:14:59;101327.66;;;19.56;83.63
65329;BME280;51941;52.210;5.158;2022-08-19T06:17:26;101333.56;;;19.58;83.87
65329;BME280;51941;52.210;5.158;2022-08-19T06:19:55;101335.94;;;19.59;84.14
65329;BME280;51941;52.210;5.158;2022-08-19T06:22:22;101326.81;;;19.60;84.09
65329;BME280;51941;52.210;5.158;2022-08-19T06:24:50;101305.69;;;19.44;84.22
65329;BME280;51941;52.210;5.158;2022-08-19T06:27:18;101321.97;;;19.62;84.50
65329;BME280;51941;52.210;5.158;2022-08-19T06:29:44;101328.66;;;19.65;84.54
65329;BME280;51941;52.210;5.158;2022-08-19T06:32:15;101247.09;;;19.12;84.54
65329;BME280;51941;52.210;5.158;2022-08-19T06:34:42;101316.31;;;19.64;84.98
65329;BME280;51941;52.210;5.158;2022-08-19T06:37:11;101325.13;;;19.70;85.08
65329;BME280;51941;52.210;5.158;2022-08-19T06:39:39;101320.53;;;19.75;84.98
65329;BME280;51941;52.210;5.158;2022-08-19T06:42:11;101319.63;;;19.85;84.71
65329;BME280;51941;52.210;5.158;2022-08-19T06:44:44;101257.09;;;19.45;84.66
65329;BME280;51941;52.210;5.158;2022-08-19T06:47:11;101325.28;;;19.88;84.70
65329;BME280;51941;52.210;5.158;2022-08-19T06:49:38;101337.28;;;19.96;84.56
65329;BME280;51941;52.210;5.158;2022-08-19T06:52:05;101214.56;;;19.18;84.19
65329;BME280;51941;52.210;5.158;2022-08-19T06:54:32;101307.63;;;19.77;84.04
65329;BME280;51941;52.210;5.158;2022-08-19T06:57:01;101153.91;;;18.83;83.97
65329;BME280;51941;52.210;5.158;2022-08-19T06:59:31;101309.41;;;19.92;84.29
65329;BME280;51941;52.210;5.158;2022-08-19T07:01:59;101150.34;;;18.93;83.62
65329;BME280;51941;52.210;5.158;2022-08-19T07:04:28;101146.53;;;18.99;83.47
65329;BME280;51941;52.210;5.158;2022-08-19T07:07:04;101343.25;;;20.27;83.78
65329;BME280;51941;52.210;5.158;2022-08-19T07:09:33;101326.06;;;20.23;83.35
65329;BME280;51941;52.210;5.158;2022-08-19T07:12:03;101348.06;;;20.30;83.33
65329;BME280;51941;52.210;5.158;2022-08-19T07:14:32;101265.91;;;19.85;83.08
65329;BME280;51941;52.210;5.158;2022-08-19T07:17:04;101180.38;;;19.39;82.92
65329;BME280;51941;52.210;5.158;2022-08-19T07:19:31;101345.72;;;20.47;82.59
65329;BME280;51941;52.210;5.158;2022-08-19T07:22:01;101356.00;;;20.45;82.32
65329;BME280;51941;52.210;5.158;2022-08-19T07:24:28;101361.88;;;20.47;82.40
65329;BME280;51941;52.210;5.158;2022-08-19T07:26:57;101377.97;;;20.52;82.42
65329;BME280;51941;52.210;5.158;2022-08-19T07:29:26;101307.25;;;20.23;82.09
65329;BME280;51941;52.210;5.158;2022-08-19T07:31:56;101276.50;;;20.05;82.24
65329;BME280;51941;52.210;5.158;2022-08-19T07:34:27;101312.03;;;20.31;82.10
65329;BME280;51941;52.210;5.158;2022-08-19T07:36:55;101361.66;;;20.67;82.19
65329;BME280;51941;52.210;5.158;2022-08-19T07:39:25;101371.88;;;20.70;81.92
65329;BME280;51941;52.210;5.158;2022-08-19T07:41:53;101351.91;;;20.76;81.83
65329;BME280;51941;52.210;5.158;2022-08-19T07:44:21;101368.78;;;20.82;81.53
65329;BME280;51941;52.210;5.158;2022-08-19T07:46:50;101349.63;;;20.89;81.33
65329;BME280;51941;52.210;5.158;2022-08-19T07:49:20;101359.41;;;21.03;81.21
65329;BME280;51941;52.210;5.158;2022-08-19T07:51:47;101358.78;;;21.11;80.62
65329;BME280;51941;52.210;5.158;2022-08-19T07:54:15;101360.97;;;21.28;80.14
65329;BME280;51941;52.210;5.158;2022-08-19T07:56:42;101285.06;;;20.84;79.71
65329;BME280;51941;52.210;5.158;2022-08-19T07:59:11;101364.41;;;21.52;79.50
65329;BME280;51941;52.210;5.158;2022-08-19T08:01:39;101150.06;;;20.15;78.68
65329;BME280;51941;52.210;5.158;2022-08-19T08:04:07;101021.13;;;19.44;78.15
65329;BME280;51941;52.210;5.158;2022-08-19T08:06:59;101260.69;;;20.99;78.55
65329;BME280;51941;52.210;5.158;2022-08-19T08:09:43;101377.88;;;21.76;78.55
65329;BME280;51941;52.210;5.158;2022-08-19T08:12:13;101376.97;;;21.81;77.99
65329;BME280;51941;52.210;5.158;2022-08-19T08:14:43;101234.34;;;20.96;77.75
65329;BME280;51941;52.210;5.158;2022-08-19T08:17:18;101019.13;;;19.54;77.47
65329;BME280;51941;52.210;5.158;2022-08-19T08:19:58;100935.19;;;18.96;77.19
65329;BME280;51941;52.210;5.158;2022-08-19T08:30:37;101395.00;;;22.18;76.71
65329;BME280;51941;52.210;5.158;2022-08-19T08:33:17;101327.28;;;21.87;76.52
65329;BME280;51941;52.210;5.158;2022-08-19T08:35:44;101382.16;;;22.29;76.04
65329;BME280;51941;52.210;5.158;2022-08-19T08:38:12;101316.03;;;21.99;75.79
65329;BME280;51941;52.210;5.158;2022-08-19T08:40:44;101164.13;;;21.30;75.22
65329;BME280;51941;52.210;5.158;2022-08-19T08:43:22;101387.97;;;22.82;73.87
65329;BME280;51941;52.210;5.158;2022-08-19T08:45:56;101186.59;;;21.71;72.97
65329;BME280;51941;52.210;5.158;2022-08-19T08:48:34;101227.72;;;22.23;72.04
65329;BME280;51941;52.210;5.158;2022-08-19T08:51:05;101292.19;;;22.52;72.09
65329;BME280;51941;52.210;5.158;2022-08-19T08:53:34;101395.75;;;23.11;71.91
65329;BME280;51941;52.210;5.158;2022-08-19T08:56:03;101396.88;;;23.10;71.80
65329;BME280;51941;52.210;5.158;2022-08-19T08:58:37;101396.38;;;23.08;71.46
65329;BME280;51941;52.210;5.158;2022-08-19T09:01:11;101288.06;;;22.41;71.65
65329;BME280;51941;52.210;5.158;2022-08-19T09:03:39;101253.41;;;22.20;71.31
65329;BME280;51941;52.210;5.158;2022-08-19T09:06:12;101159.94;;;21.70;71.23
65329;BME280;51941;52.210;5.158;2022-08-19T09:08:47;101342.88;;;23.10;70.93
65329;BME280;51941;52.210;5.158;2022-08-19T09:11:21;101185.06;;;22.25;70.62
65329;BME280;51941;52.210;5.158;2022-08-19T09:14:00;101361.06;;;23.67;70.04
65329;BME280;51941;52.210;5.158;2022-08-19T09:16:31;101310.44;;;23.59;69.34
65329;BME280;51941;52.210;5.158;2022-08-19T09:19:04;101389.91;;;24.39;68.45
65329;BME280;51941;52.210;5.158;2022-08-19T09:21:31;101391.81;;;24.69;67.54
65329;BME280;51941;52.210;5.158;2022-08-19T09:23:58;101181.44;;;23.43;66.22
65329;BME280;51941;52.210;5.158;2022-08-19T09:26:25;101396.47;;;24.77;64.95
65329;BME280;51941;52.210;5.158;2022-08-19T09:28:52;101395.81;;;24.72;65.14
65329;BME280;51941;52.210;5.158;2022-08-19T09:31:21;101348.78;;;24.28;65.53
65329;BME280;51941;52.210;5.158;2022-08-19T09:33:50;101320.09;;;24.19;66.00
65329;BME280;51941;52.210;5.158;2022-08-19T09:36:18;101394.50;;;24.61;65.46
65329;BME280;51941;52.210;5.158;2022-08-19T09:38:45;101280.47;;;23.92;65.64
65329;BME280;51941;52.210;5.158;2022-08-19T09:41:15;101403.16;;;24.71;65.23
65329;BME280;51941;52.210;5.158;2022-08-19T09:43:45;101109.47;;;22.80;65.30
65329;BME280;51941;52.210;5.158;2022-08-19T09:46:16;101376.97;;;24.58;65.35
65329;BME280;51941;52.210;5.158;2022-08-19T09:48:46;101397.97;;;24.83;65.56
65329;BME280;51941;52.210;5.158;2022-08-19T09:51:20;101316.84;;;24.39;64.81
65329;BME280;51941;52.210;5.158;2022-08-19T09:53:48;101259.16;;;24.21;64.89
65329;BME280;51941;52.210;5.158;2022-08-19T09:56:18;101268.13;;;24.39;64.44
65329;BME280;51941;52.210;5.158;2022-08-19T09:58:48;101408.63;;;25.28;63.81
65329;BME280;51941;52.210;5.158;2022-08-19T10:01:17;101410.88;;;25.35;64.14
65329;BME280;51941;52.210;5.158;2022-08-19T10:03:48;101408.69;;;25.54;63.50
65329;BME280;51941;52.210;5.158;2022-08-19T10:06:17;101327.47;;;25.23;63.15
65329;BME280;51941;52.210;5.158;2022-08-19T10:08:45;101400.56;;;25.80;62.02
65329;BME280;51941;52.210;5.158;2022-08-19T10:11:12;101238.03;;;24.89;62.15
65329;BME280;51941;52.210;5.158;2022-08-19T10:13:42;101387.00;;;26.14;61.61
65329;BME280;51941;52.210;5.158;2022-08-19T10:16:12;101393.69;;;26.17;61.39
65329;BME280;51941;52.210;5.158;2022-08-19T10:18:40;101370.25;;;26.04;61.10
65329;BME280;51941;52.210;5.158;2022-08-19T10:21:09;101355.88;;;26.03;61.49
65329;BME280;51941;52.210;5.158;2022-08-19T10:23:40;101299.75;;;25.78;61.25
65329;BME280;51941;52.210;5.158;2022-08-19T10:26:09;101379.13;;;26.30;60.95
65329;BME280;51941;52.210;5.158;2022-08-19T10:28:36;101390.56;;;26.53;60.79
65329;BME280;51941;52.210;5.158;2022-08-19T10:31:05;101380.19;;;26.93;60.53
65329;BME280;51941;52.210;5.158;2022-08-19T10:33:32;101322.28;;;26.71;58.75
65329;BME280;51941;52.210;5.158;2022-08-19T10:36:00;101390.03;;;27.35;58.88
65329;BME280;51941;52.210;5.158;2022-08-19T10:38:27;101360.59;;;27.08;57.90
65329;BME280;51941;52.210;5.158;2022-08-19T10:40:56;101382.47;;;27.20;58.14
65329;BME280;51941;52.210;5.158;2022-08-19T10:43:23;101332.66;;;26.78;57.78
65329;BME280;51941;52.210;5.158;2022-08-19T10:45:53;101328.94;;;26.83;57.66
65329;BME280;51941;52.210;5.158;2022-08-19T10:48:22;101250.94;;;26.33;57.82
65329;BME280;51941;52.210;5.158;2022-08-19T10:50:49;101345.63;;;27.02;58.03
65329;BME280;51941;52.210;5.158;2022-08-19T10:53:33;101350.41;;;27.05;58.17
65329;BME280;51941;52.210;5.158;2022-08-19T10:56:02;101255.53;;;26.41;57.76
65329;BME280;51941;52.210;5.158;2022-08-19T10:58:46;101357.06;;;27.16;57.73
65329;BME280;51941;52.210;5.158;2022-08-19T11:01:14;101282.03;;;26.74;57.69
65329;BME280;51941;52.210;5.158;2022-08-19T11:03:41;101278.44;;;26.61;56.75
65329;BME280;51941;52.210;5.158;2022-08-19T11:06:11;101280.75;;;26.42;56.18
65329;BME280;51941;52.210;5.158;2022-08-19T11:08:38;101371.00;;;27.06;56.50
65329;BME280;51941;52.210;5.158;2022-08-19T11:11:07;101330.28;;;26.77;56.19
65329;BME280;51941;52.210;5.158;2022-08-19T11:13:36;101383.94;;;27.09;56.55
65329;BME280;51941;52.210;5.158;2022-08-19T11:16:07;101384.13;;;27.33;56.17
65329;BME280;51941;52.210;5.158;2022-08-19T11:18:36;101307.75;;;26.76;55.64
65329;BME280;51941;52.210;5.158;2022-08-19T11:21:12;101343.19;;;26.80;56.03
65329;BME280;51941;52.210;5.158;2022-08-19T11:23:40;101318.22;;;26.57;56.96
65329;BME280;51941;52.210;5.158;2022-08-19T11:26:09;101355.47;;;26.86;56.80
65329;BME280;51941;52.210;5.158;2022-08-19T11:28:36;101381.41;;;26.75;56.59
65329;BME280;51941;52.210;5.158;2022-08-19T11:31:04;101347.13;;;26.53;56.56
65329;BME280;51941;52.210;5.158;2022-08-19T11:33:31;101318.78;;;26.33;57.14
65329;BME280;51941;52.210;5.158;2022-08-19T11:35:58;101334.94;;;26.21;57.66
65329;BME280;51941;52.210;5.158;2022-08-19T11:38:26;101389.63;;;26.49;58.25
65329;BME280;51941;52.210;5.158;2022-08-19T11:40:57;101342.78;;;26.14;58.18
65329;BME280;51941;52.210;5.158;2022-08-19T11:43:25;101287.00;;;25.61;58.41
65329;BME280;51941;52.210;5.158;2022-08-19T11:45:52;101294.53;;;25.30;59.68
65329;BME280;51941;52.210;5.158;2022-08-19T11:48:20;101358.56;;;25.26;62.75
65329;BME280;51941;52.210;5.158;2022-08-19T11:50:48;101163.00;;;23.75;65.19
65329;BME280;51941;52.210;5.158;2022-08-19T11:53:18;101214.41;;;23.53;67.67
65329;BME280;51941;52.210;5.158;2022-08-19T11:55:46;101396.78;;;24.67;68.27
65329;BME280;51941;52.210;5.158;2022-08-19T11:58:15;101064.44;;;22.31;69.23
65329;BME280;51941;52.210;5.158;2022-08-19T12:00:44;101396.63;;;24.41;70.46
65329;BME280;51941;52.210;5.158;2022-08-19T12:03:12;101352.09;;;24.25;69.98
65329;BME280;51941;52.210;5.158;2022-08-19T12:05:40;101264.38;;;23.87;68.97
65329;BME280;51941;52.210;5.158;2022-08-19T12:08:08;101320.03;;;24.41;68.34
65329;BME280;51941;52.210;5.158;2022-08-19T12:10:37;101370.53;;;24.76;67.78
65329;BME280;51941;52.210;5.158;2022-08-19T12:13:04;101389.44;;;25.16;67.55
65329;BME280;51941;52.210;5.158;2022-08-19T12:15:35;101349.72;;;24.85;66.95
65329;BME280;51941;52.210;5.158;2022-08-19T12:18:04;101239.09;;;24.14;66.59
65329;BME280;51941;52.210;5.158;2022-08-19T12:20:34;101395.84;;;25.20;66.55
65329;BME280;51941;52.210;5.158;2022-08-19T12:23:01;101405.44;;;25.26;66.37
65329;BME280;51941;52.210;5.158;2022-08-19T12:25:28;101239.47;;;24.29;66.04
65329;BME280;51941;52.210;5.158;2022-08-19T12:27:56;101403.56;;;25.44;65.86
65329;BME280;51941;52.210;5.158;2022-08-19T12:30:23;101405.66;;;25.55;65.46
65329;BME280;51941;52.210;5.158;2022-08-19T12:32:50;101399.44;;;25.64;65.00
65329;BME280;51941;52.210;5.158;2022-08-19T12:35:19;101344.88;;;25.48;64.47
65329;BME280;51941;52.210;5.158;2022-08-19T12:37:47;101256.06;;;24.93;64.16
65329;BME280;51941;52.210;5.158;2022-08-19T12:40:15;101383.16;;;25.81;63.84
65329;BME280;51941;52.210;5.158;2022-08-19T12:42:43;101161.03;;;24.46;62.96
65329;BME280;51941;52.210;5.158;2022-08-19T12:45:11;101376.63;;;25.73;62.88
65329;BME280;51941;52.210;5.158;2022-08-19T12:47:38;101224.38;;;24.45;63.35
65329;BME280;51941;52.210;5.158;2022-08-19T12:50:06;101171.53;;;23.91;63.40
65329;BME280;51941;52.210;5.158;2022-08-19T12:52:36;101336.94;;;24.86;63.58
65329;BME280;51941;52.210;5.158;2022-08-19T12:55:05;101224.25;;;24.11;64.77
65329;BME280;51941;52.210;5.158;2022-08-19T12:57:33;101386.16;;;25.28;64.81
65329;BME280;51941;52.210;5.158;2022-08-19T13:00:04;101343.06;;;25.09;65.62
65329;BME280;51941;52.210;5.158;2022-08-19T13:02:33;101161.19;;;23.93;66.03
65329;BME280;51941;52.210;5.158;2022-08-19T13:05:00;101374.69;;;25.48;66.53
65329;BME280;51941;52.210;5.158;2022-08-19T13:07:27;101316.28;;;25.16;66.38